sensor_id;sensor_type;location;lat;lon;timestamp;pressure;altitude;pressure_sealevel;temperature;humidity
54948;BME280;41113;41.882;12.530;2023-04-08T00:00:01;101051.28;;;11.41;66.07
54948;BME280;41113;41.882;12.530;2023-04-08T00:02:28;101058.00;;;11.36;67.67
54948;BME280;41113;41.882;12.530;2023-04-08T00:04:53;101047.66;;;11.31;68.16
54948;BME280;41113;41.882;12.530;2023-04-08T00:07:19;101051.78;;;11.35;66.98
54948;BME280;41113;41.882;12.530;2023-04-08T00:09:45;101047.59;;;11.42;66.36
54948;BME280;41113;41.882;12.530;2023-04-08T00:12:10;101047.06;;;11.48;66.06
54948;BME280;41113;41.882;12.530;2023-04-08T00:14:36;101052.91;;;11.53;66.03
54948;BME280;41113;41.882;12.530;2023-04-08T00:17:02;101043.69;;;11.56;65.50
54948;BME280;41113;41.882;12.530;2023-04-08T00:19:27;101047.25;;;11.57;65.85
54948;BME280;41113;41.882;12.530;2023-04-08T00:21:53;101042.72;;;11.57;65.51
54948;BME280;41113;41.882;12.530;2023-04-08T00:24:18;101033.66;;;11.58;66.22
54948;BME280;41113;41.882;12.530;2023-04-08T00:26:44;101023.03;;;11.57;66.25
54948;BME280;41113;41.882;12.530;2023-04-08T00:29:09;101033.78;;;11.57;66.80
54948;BME280;41113;41.882;12.530;2023-04-08T00:31:35;101025.84;;;11.55;67.05
54948;BME280;41113;41.882;12.530;2023-04-08T00:34:00;101023.03;;;11.57;67.14
54948;BME280;41113;41.882;12.530;2023-04-08T00:36:26;101021.34;;;11.56;67.32
54948;BME280;41113;41.882;12.530;2023-04-08T00:38:51;101018.22;;;11.60;67.01
54948;BME280;41113;41.882;12.530;2023-04-08T00:41:17;101013.44;;;11.64;67.29
54948;BME280;41113;41.882;12.530;2023-04-08T00:43:42;101008.06;;;11.64;67.67
54948;BME280;41113;41.882;12.530;2023-04-08T00:46:08;101002.66;;;11.64;67.98
54948;BME280;41113;41.882;12.530;2023-04-08T00:48:33;101003.53;;;11.64;68.07
54948;BME280;41113;41.882;12.530;2023-04-08T00:50:59;100998.84;;;11.66;67.97
54948;BME280;41113;41.882;12.530;2023-04-08T00:53:26;100994.06;;;11.70;67.72
54948;BME280;41113;41.882;12.530;2023-04-08T00:55:51;100987.25;;;11.66;69.29
54948;BME280;41113;41.882;12.530;2023-04-08T00:58:16;100979.16;;;11.66;68.60
54948;BME280;41113;41.882;12.530;2023-04-08T01:00:50;100985.25;;;11.68;68.50
54948;BME280;41113;41.882;12.530;2023-04-08T01:03:26;100988.66;;;11.70;68.16
54948;BME280;41113;41.882;12.530;2023-04-08T01:08:57;100984.03;;;11.72;68.36
54948;BME280;41113;41.882;12.530;2023-04-08T01:11:26;100972.53;;;11.70;69.05
54948;BME280;41113;41.882;12.530;2023-04-08T01:13:53;100964.59;;;11.68;68.35
54948;BME280;41113;41.882;12.530;2023-04-08T01:16:21;100965.44;;;11.69;67.97
54948;BME280;41113;41.882;12.530;2023-04-08T01:18:49;100968.28;;;11.67;67.77
54948;BME280;41113;41.882;12.530;2023-04-08T01:21:17;100954.25;;;11.64;68.68
54948;BME280;41113;41.882;12.530;2023-04-08T01:24:05;100948.44;;;11.59;68.78
54948;BME280;41113;41.882;12.530;2023-04-08T01:26:34;100947.44;;;11.60;67.91
54948;BME280;41113;41.882;12.530;2023-04-08T01:29:01;100950.28;;;11.58;67.74
54948;BME280;41113;41.882;12.530;2023-04-08T01:31:27;100951.13;;;11.59;67.49
54948;BME280;41113;41.882;12.530;2023-04-08T01:33:55;100938.25;;;11.62;67.28
54948;BME280;41113;41.882;12.530;2023-04-08T01:36:23;100941.34;;;11.58;67.36
54948;BME280;41113;41.882;12.530;2023-04-08T01:38:51;100955.06;;;11.54;67.34
54948;BME280;41113;41.882;12.530;2023-04-08T01:41:17;100949.97;;;11.51;67.43
54948;BME280;41113;41.882;12.530;2023-04-08T01:43:44;100946.00;;;11.56;67.19
54948;BME280;41113;41.882;12.530;2023-04-08T01:46:11;100944.59;;;11.51;67.24
54948;BME280;41113;41.882;12.530;2023-04-08T01:48:39;100942.63;;;11.53;66.90
54948;BME280;41113;41.882;12.530;2023-04-08T01:51:06;100932.69;;;11.54;67.02
54948;BME280;41113;41.882;12.530;2023-04-08T01:53:32;100933.56;;;11.54;66.73
54948;BME280;41113;41.882;12.530;2023-04-08T01:56:05;100912.59;;;11.48;67.00
54948;BME280;41113;41.882;12.530;2023-04-08T01:58:56;100925.91;;;11.50;66.44
54948;BME280;41113;41.882;12.530;2023-04-08T02:01:22;100911.47;;;11.51;66.63
54948;BME280;41113;41.882;12.530;2023-04-08T02:03:50;100910.59;;;11.50;66.04
54948;BME280;41113;41.882;12.530;2023-04-08T02:06:17;100900.97;;;11.48;65.76
54948;BME280;41113;41.882;12.530;2023-04-08T02:08:42;100898.28;;;11.38;65.61
54948;BME280;41113;41.882;12.530;2023-04-08T02:11:08;100894.44;;;11.41;65.88
54948;BME280;41113;41.882;12.530;2023-04-08T02:13:34;100882.84;;;11.40;65.57
54948;BME280;41113;41.882;12.530;2023-04-08T02:16:05;100872.34;;;11.37;65.63
54948;BME280;41113;41.882;12.530;2023-04-08T02:18:35;100871.63;;;11.35;65.86
54948;BME280;41113;41.882;12.530;2023-04-08T02:21:12;100859.16;;;11.34;65.92
54948;BME280;41113;41.882;12.530;2023-04-08T02:23:39;100851.38;;;11.31;66.10
54948;BME280;41113;41.882;12.530;2023-04-08T02:26:13;100851.94;;;11.25;66.10
54948;BME280;41113;41.882;12.530;2023-04-08T02:28:40;100837.50;;;11.26;66.19
54948;BME280;41113;41.882;12.530;2023-04-08T02:31:10;100837.47;;;11.16;66.58
54948;BME280;41113;41.882;12.530;2023-04-08T02:33:39;100824.72;;;11.09;68.12
54948;BME280;41113;41.882;12.530;2023-04-08T02:36:05;100812.50;;;10.95;68.54
54948;BME280;41113;41.882;12.530;2023-04-08T02:38:32;100824.19;;;10.84;68.42
54948;BME280;41113;41.882;12.530;2023-04-08T02:40:57;100826.22;;;10.71;68.71
54948;BME280;41113;41.882;12.530;2023-04-08T02:43:23;100823.94;;;10.67;68.27
54948;BME280;41113;41.882;12.530;2023-04-08T02:45:57;100822.34;;;10.54;68.40
54948;BME280;41113;41.882;12.530;2023-04-08T02:48:24;100821.22;;;10.57;67.92
54948;BME280;41113;41.882;12.530;2023-04-08T02:50:49;100817.28;;;10.61;67.33
54948;BME280;41113;41.882;12.530;2023-04-08T02:53:15;100832.69;;;10.59;66.82
54948;BME280;41113;41.882;12.530;2023-04-08T02:55:40;100829.88;;;10.60;66.18
54948;BME280;41113;41.882;12.530;2023-04-08T02:58:06;100826.88;;;10.54;65.86
54948;BME280;41113;41.882;12.530;2023-04-08T03:00:31;100837.06;;;10.60;66.02
54948;BME280;41113;41.882;12.530;2023-04-08T03:02:58;100849.69;;;10.69;65.86
54948;BME280;41113;41.882;12.530;2023-04-08T03:05:31;100856.00;;;10.79;65.77
54948;BME280;41113;41.882;12.530;2023-04-08T03:07:56;100842.00;;;10.85;65.87
54948;BME280;41113;41.882;12.530;2023-04-08T03:10:22;100843.59;;;10.88;68.01
54948;BME280;41113;41.882;12.530;2023-04-08T03:12:47;100833.38;;;10.82;69.41
54948;BME280;41113;41.882;12.530;2023-04-08T03:15:13;100849.75;;;10.79;70.80
54948;BME280;41113;41.882;12.530;2023-04-08T03:17:38;100873.59;;;10.72;73.09
54948;BME280;41113;41.882;12.530;2023-04-08T03:20:04;100888.16;;;10.70;72.57
54948;BME280;41113;41.882;12.530;2023-04-08T03:22:30;100873.88;;;10.69;73.20
54948;BME280;41113;41.882;12.530;2023-04-08T03:24:55;100866.59;;;10.60;74.47
54948;BME280;41113;41.882;12.530;2023-04-08T03:27:20;100863.59;;;10.53;79.53
54948;BME280;41113;41.882;12.530;2023-04-08T03:29:46;100876.28;;;10.31;80.01
54948;BME280;41113;41.882;12.530;2023-04-08T03:32:12;100871.09;;;10.18;80.29
54948;BME280;41113;41.882;12.530;2023-04-08T03:34:37;100861.50;;;10.04;81.93
54948;BME280;41113;41.882;12.530;2023-04-08T03:37:03;100876.94;;;9.91;82.43
54948;BME280;41113;41.882;12.530;2023-04-08T03:39:28;100863.84;;;9.97;82.60
54948;BME280;41113;41.882;12.530;2023-04-08T03:41:53;100856.63;;;9.77;84.69
54948;BME280;41113;41.882;12.530;2023-04-08T03:44:19;100846.97;;;9.75;84.85
54948;BME280;41113;41.882;12.530;2023-04-08T03:46:44;100830.69;;;9.66;86.85
54948;BME280;41113;41.882;12.530;2023-04-08T03:49:10;100839.56;;;9.67;84.94
54948;BME280;41113;41.882;12.530;2023-04-08T03:51:36;100834.09;;;9.68;85.90
54948;BME280;41113;41.882;12.530;2023-04-08T03:54:02;100825.34;;;9.55;86.87
54948;BME280;41113;41.882;12.530;2023-04-08T03:56:27;100820.03;;;9.33;89.20
54948;BME280;41113;41.882;12.530;2023-04-08T03:58:54;100825.53;;;9.31;89.85
54948;BME280;41113;41.882;12.530;2023-04-08T04:01:19;100820.50;;;9.38;89.39
54948;BME280;41113;41.882;12.530;2023-04-08T04:03:45;100828.56;;;9.38;88.31
54948;BME280;41113;41.882;12.530;2023-04-08T04:06:11;100825.41;;;9.33;87.53
54948;BME280;41113;41.882;12.530;2023-04-08T04:08:36;100822.59;;;9.34;87.82
54948;BME280;41113;41.882;12.530;2023-04-08T04:11:01;100809.56;;;9.30;87.87
54948;BME280;41113;41.882;12.530;2023-04-08T04:13:27;100819.84;;;9.14;87.42
54948;BME280;41113;41.882;12.530;2023-04-08T04:15:52;100812.63;;;9.25;87.09
54948;BME280;41113;41.882;12.530;2023-04-08T04:18:17;100806.94;;;9.19;88.06
54948;BME280;41113;41.882;12.530;2023-04-08T04:20:45;100821.81;;;9.12;87.99
54948;BME280;41113;41.882;12.530;2023-04-08T04:23:11;100814.25;;;9.17;89.11
54948;BME280;41113;41.882;12.530;2023-04-08T04:25:40;100813.00;;;9.21;88.54
54948;BME280;41113;41.882;12.530;2023-04-08T04:28:05;100822.00;;;9.31;87.48
54948;BME280;41113;41.882;12.530;2023-04-08T04:30:32;100826.66;;;9.18;86.63
54948;BME280;41113;41.882;12.530;2023-04-08T04:32:57;100812.28;;;9.19;85.57
54948;BME280;41113;41.882;12.530;2023-04-08T04:35:23;100797.66;;;9.23;84.87
54948;BME280;41113;41.882;12.530;2023-04-08T04:37:48;100800.22;;;9.24;85.71
54948;BME280;41113;41.882;12.530;2023-04-08T04:40:16;100809.91;;;9.36;84.97
54948;BME280;41113;41.882;12.530;2023-04-08T04:42:41;100819.31;;;9.31;83.71
54948;BME280;41113;41.882;12.530;2023-04-08T04:45:07;100828.81;;;9.35;83.66
54948;BME280;41113;41.882;12.530;2023-04-08T04:47:33;100819.91;;;9.34;83.76
54948;BME280;41113;41.882;12.530;2023-04-08T04:49:58;100831.75;;;9.10;83.58
54948;BME280;41113;41.882;12.530;2023-04-08T04:52:24;100832.25;;;9.03;84.15
54948;BME280;41113;41.882;12.530;2023-04-08T04:54:50;100869.53;;;9.18;84.13
54948;BME280;41113;41.882;12.530;2023-04-08T04:57:15;100885.34;;;9.21;83.09
54948;BME280;41113;41.882;12.530;2023-04-08T04:59:41;100891.06;;;9.27;84.01
54948;BME280;41113;41.882;12.530;2023-04-08T05:02:06;100901.66;;;9.29;83.63
54948;BME280;41113;41.882;12.530;2023-04-08T05:04:31;100894.63;;;9.17;84.17
54948;BME280;41113;41.882;12.530;2023-04-08T05:06:58;100886.31;;;9.09;86.60
54948;BME280;41113;41.882;12.530;2023-04-08T05:09:24;100885.00;;;8.92;87.65
54948;BME280;41113;41.882;12.530;2023-04-08T05:11:50;100861.47;;;8.62;88.82
54948;BME280;41113;41.882;12.530;2023-04-08T05:14:15;100858.16;;;8.47;90.18
54948;BME280;41113;41.882;12.530;2023-04-08T05:16:41;100844.66;;;8.49;88.55
54948;BME280;41113;41.882;12.530;2023-04-08T05:19:06;100834.69;;;8.51;88.28
54948;BME280;41113;41.882;12.530;2023-04-08T05:21:33;100835.16;;;8.56;87.98
54948;BME280;41113;41.882;12.530;2023-04-08T05:23:59;100822.59;;;8.45;88.88
54948;BME280;41113;41.882;12.530;2023-04-08T05:26:24;100828.59;;;8.49;89.48
54948;BME280;41113;41.882;12.530;2023-04-08T05:28:50;100841.97;;;8.49;90.40
54948;BME280;41113;41.882;12.530;2023-04-08T05:31:19;100837.38;;;8.51;90.27
54948;BME280;41113;41.882;12.530;2023-04-08T05:33:45;100829.81;;;8.56;90.43
54948;BME280;41113;41.882;12.530;2023-04-08T05:36:11;100840.53;;;8.56;90.76
54948;BME280;41113;41.882;12.530;2023-04-08T05:38:38;100850.75;;;8.62;90.29
54948;BME280;41113;41.882;12.530;2023-04-08T05:41:04;100841.75;;;8.63;88.98
54948;BME280;41113;41.882;12.530;2023-04-08T05:43:32;100842.34;;;8.66;88.71
54948;BME280;41113;41.882;12.530;2023-04-08T05:45:57;100852.56;;;8.72;88.25
54948;BME280;41113;41.882;12.530;2023-04-08T05:48:23;100867.53;;;8.64;87.76
54948;BME280;41113;41.882;12.530;2023-04-08T05:50:50;100857.56;;;8.66;87.36
54948;BME280;41113;41.882;12.530;2023-04-08T05:53:16;100864.88;;;8.64;87.40
54948;BME280;41113;41.882;12.530;2023-04-08T05:55:42;100885.78;;;8.59;87.04
54948;BME280;41113;41.882;12.530;2023-04-08T05:58:08;100872.66;;;8.56;88.36
54948;BME280;41113;41.882;12.530;2023-04-08T06:00:33;100898.06;;;8.50;89.66
54948;BME280;41113;41.882;12.530;2023-04-08T06:02:59;100906.47;;;8.46;90.49
54948;BME280;41113;41.882;12.530;2023-04-08T06:05:24;100924.97;;;8.49;91.30
54948;BME280;41113;41.882;12.530;2023-04-08T06:07:50;100932.34;;;8.45;91.62
54948;BME280;41113;41.882;12.530;2023-04-08T06:10:16;100955.41;;;8.35;92.05
54948;BME280;41113;41.882;12.530;2023-04-08T06:12:41;100975.22;;;8.32;92.01
54948;BME280;41113;41.882;12.530;2023-04-08T06:15:08;100970.31;;;8.26;91.59
54948;BME280;41113;41.882;12.530;2023-04-08T06:17:37;100970.22;;;8.28;92.98
54948;BME280;41113;41.882;12.530;2023-04-08T06:20:04;101014.69;;;8.41;93.64
54948;BME280;41113;41.882;12.530;2023-04-08T06:22:29;100994.16;;;8.29;91.01
54948;BME280;41113;41.882;12.530;2023-04-08T06:24:55;100998.91;;;8.26;93.97
54948;BME280;41113;41.882;12.530;2023-04-08T06:27:20;101001.84;;;8.10;97.25
54948;BME280;41113;41.882;12.530;2023-04-08T06:29:45;100990.63;;;8.05;97.99
54948;BME280;41113;41.882;12.530;2023-04-08T06:32:12;100983.91;;;7.99;95.96
54948;BME280;41113;41.882;12.530;2023-04-08T06:34:37;100941.72;;;7.79;95.30
54948;BME280;41113;41.882;12.530;2023-04-08T06:37:03;100913.09;;;7.68;94.89
54948;BME280;41113;41.882;12.530;2023-04-08T06:39:30;100894.16;;;7.71;93.21
54948;BME280;41113;41.882;12.530;2023-04-08T06:41:55;100890.59;;;7.84;93.62
54948;BME280;41113;41.882;12.530;2023-04-08T06:44:22;100896.19;;;7.80;95.62
54948;BME280;41113;41.882;12.530;2023-04-08T06:46:47;100893.50;;;7.80;95.65
54948;BME280;41113;41.882;12.530;2023-04-08T06:52:22;100900.59;;;7.93;96.36
54948;BME280;41113;41.882;12.530;2023-04-08T06:54:48;100889.69;;;7.96;96.30
54948;BME280;41113;41.882;12.530;2023-04-08T06:57:13;100895.25;;;7.93;95.73
54948;BME280;41113;41.882;12.530;2023-04-08T06:59:38;100896.28;;;8.03;96.99
54948;BME280;41113;41.882;12.530;2023-04-08T07:02:04;100897.41;;;8.11;97.36
54948;BME280;41113;41.882;12.530;2023-04-08T07:04:29;100900.72;;;8.15;96.37
54948;BME280;41113;41.882;12.530;2023-04-08T07:06:54;100910.44;;;8.16;94.99
54948;BME280;41113;41.882;12.530;2023-04-08T07:09:20;100906.13;;;8.02;95.19
54948;BME280;41113;41.882;12.530;2023-04-08T07:11:45;100890.69;;;8.06;94.56
54948;BME280;41113;41.882;12.530;2023-04-08T07:14:11;100899.09;;;8.12;94.29
54948;BME280;41113;41.882;12.530;2023-04-08T07:16:36;100902.81;;;8.23;93.55
54948;BME280;41113;41.882;12.530;2023-04-08T07:19:01;100901.25;;;8.31;94.01
54948;BME280;41113;41.882;12.530;2023-04-08T07:21:27;100893.03;;;8.34;93.06
54948;BME280;41113;41.882;12.530;2023-04-08T07:23:52;100901.38;;;8.30;92.20
54948;BME280;41113;41.882;12.530;2023-04-08T07:26:18;100904.22;;;8.39;91.03
54948;BME280;41113;41.882;12.530;2023-04-08T07:28:43;100893.34;;;8.30;89.63
54948;BME280;41113;41.882;12.530;2023-04-08T07:31:14;100886.69;;;8.35;89.50
54948;BME280;41113;41.882;12.530;2023-04-08T07:33:40;100897.13;;;8.62;88.33
54948;BME280;41113;41.882;12.530;2023-04-08T07:36:06;100897.00;;;8.64;87.03
54948;BME280;41113;41.882;12.530;2023-04-08T07:38:32;100896.97;;;8.53;85.11
54948;BME280;41113;41.882;12.530;2023-04-08T07:40:58;100929.47;;;8.48;84.96
54948;BME280;41113;41.882;12.530;2023-04-08T07:43:23;100910.97;;;8.56;84.10
54948;BME280;41113;41.882;12.530;2023-04-08T07:45:48;100915.25;;;8.59;83.27
54948;BME280;41113;41.882;12.530;2023-04-08T07:48:14;100903.09;;;8.66;83.47
54948;BME280;41113;41.882;12.530;2023-04-08T07:50:39;100903.44;;;8.61;83.29
54948;BME280;41113;41.882;12.530;2023-04-08T07:53:05;100897.72;;;8.66;83.88
54948;BME280;41113;41.882;12.530;2023-04-08T07:55:33;100899.72;;;8.97;82.89
54948;BME280;41113;41.882;12.530;2023-04-08T07:57:59;100910.56;;;8.85;82.95
54948;BME280;41113;41.882;12.530;2023-04-08T08:00:25;100904.81;;;9.00;82.75
54948;BME280;41113;41.882;12.530;2023-04-08T08:02:51;100913.50;;;9.15;81.82
54948;BME280;41113;41.882;12.530;2023-04-08T08:05:16;100916.75;;;9.08;81.25
54948;BME280;41113;41.882;12.530;2023-04-08T08:07:42;100904.09;;;9.10;82.43
54948;BME280;41113;41.882;12.530;2023-04-08T08:10:08;100914.94;;;9.42;81.67
54948;BME280;41113;41.882;12.530;2023-04-08T08:12:34;100920.19;;;9.54;80.22
54948;BME280;41113;41.882;12.530;2023-04-08T08:15:00;100917.25;;;9.57;80.63
54948;BME280;41113;41.882;12.530;2023-04-08T08:17:25;100906.75;;;9.65;79.57
54948;BME280;41113;41.882;12.530;2023-04-08T08:19:54;100913.56;;;9.70;79.86
54948;BME280;41113;41.882;12.530;2023-04-08T08:22:19;100909.41;;;9.77;77.30
54948;BME280;41113;41.882;12.530;2023-04-08T08:24:44;100919.88;;;9.80;76.26
54948;BME280;41113;41.882;12.530;2023-04-08T08:27:10;100910.59;;;9.84;76.34
54948;BME280;41113;41.882;12.530;2023-04-08T08:29:35;100915.47;;;9.90;74.81
54948;BME280;41113;41.882;12.530;2023-04-08T08:32:01;100913.34;;;10.05;74.35
54948;BME280;41113;41.882;12.530;2023-04-08T08:34:28;100911.59;;;10.26;73.73
54948;BME280;41113;41.882;12.530;2023-04-08T08:36:53;100908.53;;;10.19;72.75
54948;BME280;41113;41.882;12.530;2023-04-08T08:39:19;100901.75;;;10.36;73.62
54948;BME280;41113;41.882;12.530;2023-04-08T08:41:44;100917.44;;;10.52;73.63
54948;BME280;41113;41.882;12.530;2023-04-08T08:44:10;100921.69;;;10.54;73.00
54948;BME280;41113;41.882;12.530;2023-04-08T08:46:44;100926.56;;;10.28;73.89
54948;BME280;41113;41.882;12.530;2023-04-08T08:49:11;100907.09;;;10.68;73.54
54948;BME280;41113;41.882;12.530;2023-04-08T08:51:36;100900.97;;;11.08;72.60
54948;BME280;41113;41.882;12.530;2023-04-08T08:54:04;100912.78;;;11.26;71.28
54948;BME280;41113;41.882;12.530;2023-04-08T08:56:29;100912.56;;;11.39;71.10
54948;BME280;41113;41.882;12.530;2023-04-08T08:58:56;100912.78;;;11.26;71.09
54948;BME280;41113;41.882;12.530;2023-04-08T09:01:37;100901.19;;;11.35;70.78
54948;BME280;41113;41.882;12.530;2023-04-08T09:06:42;100905.78;;;11.44;70.71
54948;BME280;41113;41.882;12.530;2023-04-08T09:09:08;100902.81;;;11.47;70.14
54948;BME280;41113;41.882;12.530;2023-04-08T09:11:41;100906.09;;;11.61;69.63
54948;BME280;41113;41.882;12.530;2023-04-08T09:14:23;100898.47;;;11.66;69.27
54948;BME280;41113;41.882;12.530;2023-04-08T09:16:51;100919.22;;;11.84;69.05
54948;BME280;41113;41.882;12.530;2023-04-08T09:19:17;100903.63;;;11.78;69.88
54948;BME280;41113;41.882;12.530;2023-04-08T09:21:43;100927.19;;;12.05;69.71
54948;BME280;41113;41.882;12.530;2023-04-08T09:24:26;100917.44;;;12.43;67.83
54948;BME280;41113;41.882;12.530;2023-04-08T09:26:51;100914.88;;;12.22;67.80
54948;BME280;41113;41.882;12.530;2023-04-08T09:29:17;100909.59;;;11.82;69.15
54948;BME280;41113;41.882;12.530;2023-04-08T09:31:42;100908.50;;;12.13;68.59
54948;BME280;41113;41.882;12.530;2023-04-08T09:34:12;100912.19;;;12.22;68.53
54948;BME280;41113;41.882;12.530;2023-04-08T09:36:39;100906.50;;;12.54;66.70
54948;BME280;41113;41.882;12.530;2023-04-08T09:39:05;100897.03;;;12.40;66.12
54948;BME280;41113;41.882;12.530;2023-04-08T09:41:35;100926.78;;;12.10;67.33
54948;BME280;41113;41.882;12.530;2023-04-08T09:44:05;100907.38;;;12.45;67.07
54948;BME280;41113;41.882;12.530;2023-04-08T09:51:59;100897.16;;;12.39;64.95
54948;BME280;41113;41.882;12.530;2023-04-08T09:57:13;100899.00;;;12.48;64.42
54948;BME280;41113;41.882;12.530;2023-04-08T10:00:16;100919.22;;;12.81;63.06
54948;BME280;41113;41.882;12.530;2023-04-08T10:05:12;100895.88;;;13.09;62.61
54948;BME280;41113;41.882;12.530;2023-04-08T10:07:38;100911.72;;;13.31;61.81
54948;BME280;41113;41.882;12.530;2023-04-08T10:10:04;100898.75;;;12.98;61.24
54948;BME280;41113;41.882;12.530;2023-04-08T10:12:31;100902.38;;;13.16;61.56
54948;BME280;41113;41.882;12.530;2023-04-08T10:17:48;100918.28;;;13.19;60.31
54948;BME280;41113;41.882;12.530;2023-04-08T10:23:03;100899.09;;;12.75;62.26
54948;BME280;41113;41.882;12.530;2023-04-08T10:25:30;100894.50;;;12.95;62.00
54948;BME280;41113;41.882;12.530;2023-04-08T10:27:56;100892.28;;;12.81;61.04
54948;BME280;41113;41.882;12.530;2023-04-08T10:32:53;100888.91;;;12.60;61.89
54948;BME280;41113;41.882;12.530;2023-04-08T10:35:34;100884.66;;;12.57;61.82
54948;BME280;41113;41.882;12.530;2023-04-08T10:38:00;100894.03;;;12.53;60.08
54948;BME280;41113;41.882;12.530;2023-04-08T10:40:26;100896.44;;;12.46;61.08
54948;BME280;41113;41.882;12.530;2023-04-08T10:42:55;100883.25;;;12.34;60.73
54948;BME280;41113;41.882;12.530;2023-04-08T10:45:21;100882.53;;;12.32;61.05
54948;BME280;41113;41.882;12.530;2023-04-08T10:47:46;100877.03;;;12.43;61.02
54948;BME280;41113;41.882;12.530;2023-04-08T10:50:16;100885.34;;;12.59;61.32
54948;BME280;41113;41.882;12.530;2023-04-08T10:52:49;100902.38;;;12.69;61.47
54948;BME280;41113;41.882;12.530;2023-04-08T10:55:24;100900.81;;;12.57;62.39
54948;BME280;41113;41.882;12.530;2023-04-08T10:57:50;100899.53;;;12.71;61.67
54948;BME280;41113;41.882;12.530;2023-04-08T11:00:31;100895.81;;;12.82;61.73
54948;BME280;41113;41.882;12.530;2023-04-08T11:03:10;100893.09;;;13.01;61.12
54948;BME280;41113;41.882;12.530;2023-04-08T11:05:37;100879.44;;;13.02;60.46
54948;BME280;41113;41.882;12.530;2023-04-08T11:08:06;100889.38;;;13.02;60.34
54948;BME280;41113;41.882;12.530;2023-04-08T11:10:36;100881.00;;;13.05;61.22
54948;BME280;41113;41.882;12.530;2023-04-08T11:13:06;100902.97;;;13.00;60.76
54948;BME280;41113;41.882;12.530;2023-04-08T11:15:33;100890.25;;;12.93;61.61
54948;BME280;41113;41.882;12.530;2023-04-08T11:18:02;100896.03;;;12.98;61.33
54948;BME280;41113;41.882;12.530;2023-04-08T11:20:27;100899.72;;;12.97;61.84
54948;BME280;41113;41.882;12.530;2023-04-08T11:22:53;100894.78;;;12.92;62.10
54948;BME280;41113;41.882;12.530;2023-04-08T11:25:19;100899.03;;;12.95;62.45
54948;BME280;41113;41.882;12.530;2023-04-08T11:27:45;100907.84;;;12.87;63.61
54948;BME280;41113;41.882;12.530;2023-04-08T11:30:12;100906.78;;;12.70;64.17
54948;BME280;41113;41.882;12.530;2023-04-08T11:32:37;100903.38;;;12.49;66.44
54948;BME280;41113;41.882;12.530;2023-04-08T11:35:04;100902.84;;;12.36;69.34
54948;BME280;41113;41.882;12.530;2023-04-08T11:37:40;100913.31;;;12.29;69.63
54948;BME280;41113;41.882;12.530;2023-04-08T11:40:10;100910.19;;;12.34;68.98
54948;BME280;41113;41.882;12.530;2023-04-08T11:42:36;100910.94;;;12.36;69.51
54948;BME280;41113;41.882;12.530;2023-04-08T11:45:13;100905.53;;;12.17;69.59
54948;BME280;41113;41.882;12.530;2023-04-08T11:47:39;100906.81;;;12.12;69.83
54948;BME280;41113;41.882;12.530;2023-04-08T11:50:05;100912.75;;;12.06;69.21
54948;BME280;41113;41.882;12.530;2023-04-08T11:52:50;100914.97;;;11.82;70.35
54948;BME280;41113;41.882;12.530;2023-04-08T11:55:23;100906.56;;;11.75;70.69
54948;BME280;41113;41.882;12.530;2023-04-08T11:57:49;100914.25;;;11.80;70.49
54948;BME280;41113;41.882;12.530;2023-04-08T12:00:16;100915.78;;;11.73;72.02
54948;BME280;41113;41.882;12.530;2023-04-08T12:02:41;100919.72;;;11.69;72.12
54948;BME280;41113;41.882;12.530;2023-04-08T12:05:07;100922.00;;;11.73;72.72
54948;BME280;41113;41.882;12.530;2023-04-08T12:07:33;100919.50;;;11.91;72.82
54948;BME280;41113;41.882;12.530;2023-04-08T12:09:58;100916.69;;;11.93;72.25
54948;BME280;41113;41.882;12.530;2023-04-08T12:12:23;100912.44;;;11.90;72.13
54948;BME280;41113;41.882;12.530;2023-04-08T12:14:49;100913.56;;;11.78;72.81
54948;BME280;41113;41.882;12.530;2023-04-08T12:17:15;100904.78;;;11.95;73.29
54948;BME280;41113;41.882;12.530;2023-04-08T12:19:40;100904.94;;;11.94;74.18
54948;BME280;41113;41.882;12.530;2023-04-08T12:22:05;100915.13;;;11.90;73.22
54948;BME280;41113;41.882;12.530;2023-04-08T12:24:31;100910.13;;;11.76;74.56
54948;BME280;41113;41.882;12.530;2023-04-08T12:26:57;100904.78;;;11.95;73.87
54948;BME280;41113;41.882;12.530;2023-04-08T12:29:22;100902.19;;;11.74;73.63
54948;BME280;41113;41.882;12.530;2023-04-08T12:31:47;100892.31;;;11.84;73.75
54948;BME280;41113;41.882;12.530;2023-04-08T12:34:13;100889.91;;;11.91;73.81
54948;BME280;41113;41.882;12.530;2023-04-08T12:36:38;100887.94;;;12.03;73.75
54948;BME280;41113;41.882;12.530;2023-04-08T12:39:03;100887.78;;;11.95;73.35
54948;BME280;41113;41.882;12.530;2023-04-08T12:41:29;100879.59;;;12.15;73.33
54948;BME280;41113;41.882;12.530;2023-04-08T12:43:54;100886.09;;;12.23;73.64
54948;BME280;41113;41.882;12.530;2023-04-08T12:46:20;100889.22;;;12.08;73.61
54948;BME280;41113;41.882;12.530;2023-04-08T12:48:45;100881.88;;;12.10;73.08
54948;BME280;41113;41.882;12.530;2023-04-08T12:51:12;100881.00;;;12.10;72.85
54948;BME280;41113;41.882;12.530;2023-04-08T12:53:37;100881.00;;;12.10;74.53
54948;BME280;41113;41.882;12.530;2023-04-08T12:56:03;100893.03;;;12.25;73.99
54948;BME280;41113;41.882;12.530;2023-04-08T12:58:29;100887.81;;;12.24;73.84
54948;BME280;41113;41.882;12.530;2023-04-08T13:00:54;100886.09;;;12.32;73.78
54948;BME280;41113;41.882;12.530;2023-04-08T13:03:20;100877.59;;;12.37;73.83
54948;BME280;41113;41.882;12.530;2023-04-08T13:05:45;100878.16;;;12.31;73.36
54948;BME280;41113;41.882;12.530;2023-04-08T13:08:11;100882.16;;;12.07;73.30